PWSweather.com
Personal Weather Stations
Station Observations
KOHAVON11
Long Road Station, Avon, OH 44011

Long Road StationAvon, OH 44011

Lat: 41.437, Lon: -82.0477

Elevation: 686

Station Type: Davis Vantage Pro2

http://www.avon-weather.com

High Low Average
Temperature 79.9°F26.6°C 63.4°F17.4°C 68.7°F20.4°C
Dew Point 70.5°F21.4°C 57.4°F14.1°C 62.7°F17.1°C
Winds 15.0 mph 24.1 kmh Calm Calm 2.0 mph S3.2 kmh S
Wind Gusts 22.0 mph35.4 kmh -- 8.0 mph12.9 kmh
Humidity 90% 62% 82%
Pressure 29.98 in1015.2 mb 29.79 in1008.8 mb -
Precipitation 1.37 in34.8 mm - -
Hour Temp Dew Point Humidity Winds Wind Gusts Pressure Precip Precip Rate Daily Precip Total
12:04 AM 68.7°F20.4°C 57.0°F13.9°C 67% 3.0 mph SE4.8 kmh SE 15.0 mph24.1 kmh 29.99 in1015.6 mb 0.00 in0.0 mm 0.00 in0.0 mm 0.00 in0.0 mm
12:09 AM 68.6°F20.3°C 56.9°F13.8°C 67% 7.0 mph SE11.3 kmh SE 17.0 mph27.4 kmh 29.99 in1015.6 mb 0.00 in0.0 mm 0.00 in0.0 mm 0.00 in0.0 mm
12:14 AM 68.4°F20.2°C 57.2°F14.0°C 68% 2.0 mph E3.2 kmh E 17.0 mph27.4 kmh 29.99 in1015.6 mb 0.00 in0.0 mm 0.00 in0.0 mm 0.00 in0.0 mm
12:19 AM 68.3°F20.2°C 57.1°F13.9°C 68% 4.0 mph ESE6.4 kmh ESE 17.0 mph27.4 kmh 29.99 in1015.6 mb 0.00 in0.0 mm 0.00 in0.0 mm 0.00 in0.0 mm
12:24 AM 68.2°F20.1°C 57.0°F13.9°C 68% 5.0 mph SE8.0 kmh SE 17.0 mph27.4 kmh 29.99 in1015.6 mb 0.00 in0.0 mm 0.00 in0.0 mm 0.00 in0.0 mm
12:29 AM 68.1°F20.1°C 56.9°F13.8°C 68% 6.0 mph E9.7 kmh E 13.0 mph20.9 kmh 29.99 in1015.6 mb 0.00 in0.0 mm 0.00 in0.0 mm 0.00 in0.0 mm
12:34 AM 68.0°F20.0°C 56.8°F13.8°C 68% 7.0 mph E11.3 kmh E 13.0 mph20.9 kmh 29.98 in1015.2 mb 0.00 in0.0 mm 0.00 in0.0 mm 0.00 in0.0 mm
12:39 AM 68.0°F20.0°C 57.2°F14.0°C 69% 8.0 mph SE12.9 kmh SE 13.0 mph20.9 kmh 29.98 in1015.2 mb 0.00 in0.0 mm 0.00 in0.0 mm 0.00 in0.0 mm
12:44 AM 67.9°F19.9°C 57.1°F13.9°C 69% 5.0 mph ESE8.0 kmh ESE 14.0 mph22.5 kmh 29.98 in1015.2 mb 0.00 in0.0 mm 0.00 in0.0 mm 0.00 in0.0 mm
12:49 AM 67.8°F19.9°C 57.0°F13.9°C 69% 4.0 mph SE6.4 kmh SE 15.0 mph24.1 kmh 29.98 in1015.2 mb 0.00 in0.0 mm 0.00 in0.0 mm 0.00 in0.0 mm
12:54 AM 67.7°F19.8°C 57.3°F14.1°C 70% 4.0 mph SE6.4 kmh SE 15.0 mph24.1 kmh 29.98 in1015.2 mb 0.00 in0.0 mm 0.00 in0.0 mm 0.00 in0.0 mm
12:59 AM 67.5°F19.7°C 57.9°F14.4°C 72% 4.0 mph SE6.4 kmh SE 15.0 mph24.1 kmh 29.98 in1015.2 mb 0.00 in0.0 mm 0.00 in0.0 mm 0.00 in0.0 mm
01:04 AM 67.3°F19.6°C 58.1°F14.5°C 73% 4.0 mph SE6.4 kmh SE 15.0 mph24.1 kmh 29.98 in1015.2 mb 0.00 in0.0 mm 0.00 in0.0 mm 0.00 in0.0 mm
01:09 AM 67.0°F19.4°C 58.6°F14.8°C 75% Calm Calm 12.0 mph19.3 kmh 29.98 in1015.2 mb 0.00 in0.0 mm 0.00 in0.0 mm 0.00 in0.0 mm
01:14 AM 66.6°F19.2°C 58.6°F14.8°C 76% Calm Calm 12.0 mph19.3 kmh 29.98 in1015.2 mb 0.00 in0.0 mm 0.00 in0.0 mm 0.00 in0.0 mm
01:19 AM 66.3°F19.1°C 59.1°F15.1°C 78% 2.0 mph SE3.2 kmh SE 7.0 mph11.3 kmh 29.98 in1015.2 mb 0.00 in0.0 mm 0.00 in0.0 mm 0.00 in0.0 mm
01:24 AM 66.0°F18.9°C 59.2°F15.1°C 79% Calm Calm 8.0 mph12.9 kmh 29.97 in1014.9 mb 0.00 in0.0 mm 0.00 in0.0 mm 0.00 in0.0 mm
01:29 AM 65.7°F18.7°C 59.2°F15.1°C 80% 9.0 mph E14.5 kmh E 10.0 mph16.1 kmh 29.98 in1015.2 mb 0.00 in0.0 mm 0.00 in0.0 mm 0.00 in0.0 mm
01:34 AM 65.3°F18.5°C 59.2°F15.1°C 81% Calm Calm 10.0 mph16.1 kmh 29.97 in1014.9 mb 0.00 in0.0 mm 0.00 in0.0 mm 0.00 in0.0 mm
01:39 AM 65.0°F18.3°C 58.9°F14.9°C 81% Calm Calm 1.0 mph1.6 kmh 29.97 in1014.9 mb 0.00 in0.0 mm 0.00 in0.0 mm 0.00 in0.0 mm
01:44 AM 64.8°F18.2°C 59.1°F15.1°C 82% Calm Calm -- 29.97 in1014.9 mb 0.00 in0.0 mm 0.00 in0.0 mm 0.00 in0.0 mm
01:49 AM 64.6°F18.1°C 59.2°F15.1°C 83% 3.0 mph E4.8 kmh E 5.0 mph8.0 kmh 29.96 in1014.6 mb 0.00 in0.0 mm 0.00 in0.0 mm 0.00 in0.0 mm
01:54 AM 64.4°F18.0°C 59.0°F15.0°C 83% Calm Calm 4.0 mph6.4 kmh 29.96 in1014.6 mb 0.00 in0.0 mm 0.00 in0.0 mm 0.00 in0.0 mm
01:59 AM 64.2°F17.9°C 59.2°F15.1°C 84% 4.0 mph ESE6.4 kmh ESE 8.0 mph12.9 kmh 29.96 in1014.6 mb 0.00 in0.0 mm 0.00 in0.0 mm 0.00 in0.0 mm
02:04 AM 64.1°F17.8°C 59.1°F15.1°C 84% 4.0 mph SE6.4 kmh SE 8.0 mph12.9 kmh 29.96 in1014.6 mb 0.00 in0.0 mm 0.00 in0.0 mm 0.00 in0.0 mm
02:09 AM 64.0°F17.8°C 59.0°F15.0°C 84% Calm Calm 10.0 mph16.1 kmh 29.96 in1014.6 mb 0.00 in0.0 mm 0.00 in0.0 mm 0.00 in0.0 mm
02:14 AM 63.8°F17.7°C 58.8°F14.9°C 84% 1.0 mph E1.6 kmh E 9.0 mph14.5 kmh 29.96 in1014.6 mb 0.00 in0.0 mm 0.00 in0.0 mm 0.00 in0.0 mm
02:19 AM 63.7°F17.6°C 58.7°F14.8°C 84% 1.0 mph SE1.6 kmh SE 4.0 mph6.4 kmh 29.95 in1014.2 mb 0.00 in0.0 mm 0.00 in0.0 mm 0.00 in0.0 mm
02:24 AM 63.7°F17.6°C 59.0°F15.0°C 85% 4.0 mph E6.4 kmh E 6.0 mph9.7 kmh 29.95 in1014.2 mb 0.00 in0.0 mm 0.00 in0.0 mm 0.00 in0.0 mm
02:29 AM 63.6°F17.6°C 58.9°F14.9°C 85% Calm Calm 9.0 mph14.5 kmh 29.95 in1014.2 mb 0.00 in0.0 mm 0.00 in0.0 mm 0.00 in0.0 mm
02:34 AM 63.6°F17.6°C 58.9°F14.9°C 85% Calm Calm 9.0 mph14.5 kmh 29.95 in1014.2 mb 0.00 in0.0 mm 0.00 in0.0 mm 0.00 in0.0 mm
02:39 AM 63.6°F17.6°C 58.9°F14.9°C 85% 5.0 mph SE8.0 kmh SE 10.0 mph16.1 kmh 29.95 in1014.2 mb 0.00 in0.0 mm 0.00 in0.0 mm 0.00 in0.0 mm
02:44 AM 63.6°F17.6°C 58.9°F14.9°C 85% 2.0 mph ESE3.2 kmh ESE 6.0 mph9.7 kmh 29.95 in1014.2 mb 0.00 in0.0 mm 0.00 in0.0 mm 0.00 in0.0 mm
02:49 AM 63.5°F17.5°C 58.5°F14.7°C 84% Calm Calm 6.0 mph9.7 kmh 29.95 in1014.2 mb 0.00 in0.0 mm 0.00 in0.0 mm 0.00 in0.0 mm
02:54 AM 63.5°F17.5°C 58.5°F14.7°C 84% 2.0 mph ESE3.2 kmh ESE 8.0 mph12.9 kmh 29.94 in1013.9 mb 0.00 in0.0 mm 0.00 in0.0 mm 0.00 in0.0 mm
02:59 AM 63.5°F17.5°C 58.5°F14.7°C 84% 2.0 mph ESE3.2 kmh ESE 8.0 mph12.9 kmh 29.94 in1013.9 mb 0.00 in0.0 mm 0.00 in0.0 mm 0.00 in0.0 mm
03:04 AM 63.5°F17.5°C 58.5°F14.7°C 84% 10.0 mph SE16.1 kmh SE 10.0 mph16.1 kmh 29.94 in1013.9 mb 0.00 in0.0 mm 0.00 in0.0 mm 0.00 in0.0 mm
03:09 AM 63.6°F17.6°C 58.6°F14.8°C 84% Calm Calm 10.0 mph16.1 kmh 29.94 in1013.9 mb 0.00 in0.0 mm 0.00 in0.0 mm 0.00 in0.0 mm
03:14 AM 63.7°F17.6°C 58.7°F14.8°C 84% 4.0 mph SE6.4 kmh SE 6.0 mph9.7 kmh 29.93 in1013.5 mb 0.00 in0.0 mm 0.00 in0.0 mm 0.00 in0.0 mm
03:19 AM 63.7°F17.6°C 58.7°F14.8°C 84% Calm Calm 9.0 mph14.5 kmh 29.93 in1013.5 mb 0.00 in0.0 mm 0.00 in0.0 mm 0.00 in0.0 mm
03:24 AM 63.8°F17.7°C 58.4°F14.7°C 83% 5.0 mph E8.0 kmh E 10.0 mph16.1 kmh 29.93 in1013.5 mb 0.00 in0.0 mm 0.00 in0.0 mm 0.00 in0.0 mm
03:29 AM 63.7°F17.6°C 58.3°F14.6°C 83% 3.0 mph ESE4.8 kmh ESE 10.0 mph16.1 kmh 29.93 in1013.5 mb 0.00 in0.0 mm 0.00 in0.0 mm 0.00 in0.0 mm
03:34 AM 63.8°F17.7°C 58.4°F14.7°C 83% Calm Calm 10.0 mph16.1 kmh 29.93 in1013.5 mb 0.00 in0.0 mm 0.00 in0.0 mm 0.00 in0.0 mm
03:39 AM 63.8°F17.7°C 58.4°F14.7°C 83% 3.0 mph ESE4.8 kmh ESE 10.0 mph16.1 kmh 29.92 in1013.2 mb 0.00 in0.0 mm 0.00 in0.0 mm 0.00 in0.0 mm
03:44 AM 63.8°F17.7°C 58.4°F14.7°C 83% 2.0 mph ESE3.2 kmh ESE 10.0 mph16.1 kmh 29.93 in1013.5 mb 0.00 in0.0 mm 0.00 in0.0 mm 0.00 in0.0 mm
03:49 AM 63.8°F17.7°C 58.4°F14.7°C 83% Calm Calm 10.0 mph16.1 kmh 29.93 in1013.5 mb 0.00 in0.0 mm 0.00 in0.0 mm 0.00 in0.0 mm
03:54 AM 63.8°F17.7°C 58.4°F14.7°C 83% Calm Calm 6.0 mph9.7 kmh 29.93 in1013.5 mb 0.00 in0.0 mm 0.00 in0.0 mm 0.00 in0.0 mm
03:59 AM 63.9°F17.7°C 58.2°F14.6°C 82% 7.0 mph ESE11.3 kmh ESE 8.0 mph12.9 kmh 29.93 in1013.5 mb 0.00 in0.0 mm 0.00 in0.0 mm 0.00 in0.0 mm
04:04 AM 63.9°F17.7°C 58.2°F14.6°C 82% Calm Calm 8.0 mph12.9 kmh 29.92 in1013.2 mb 0.00 in0.0 mm 0.00 in0.0 mm 0.00 in0.0 mm
04:09 AM 63.9°F17.7°C 58.2°F14.6°C 82% 4.0 mph SE6.4 kmh SE 5.0 mph8.0 kmh 29.93 in1013.5 mb 0.00 in0.0 mm 0.00 in0.0 mm 0.00 in0.0 mm
04:14 AM 63.8°F17.7°C 58.1°F14.5°C 82% Calm Calm 8.0 mph12.9 kmh 29.93 in1013.5 mb 0.00 in0.0 mm 0.00 in0.0 mm 0.00 in0.0 mm
04:19 AM 63.8°F17.7°C 58.1°F14.5°C 82% 2.0 mph SE3.2 kmh SE 9.0 mph14.5 kmh 29.92 in1013.2 mb 0.00 in0.0 mm 0.00 in0.0 mm 0.00 in0.0 mm
04:24 AM 63.8°F17.7°C 58.1°F14.5°C 82% 6.0 mph SSE9.7 kmh SSE 9.0 mph14.5 kmh 29.92 in1013.2 mb 0.00 in0.0 mm 0.00 in0.0 mm 0.00 in0.0 mm
04:29 AM 63.9°F17.7°C 58.2°F14.6°C 82% 6.0 mph SE9.7 kmh SE 9.0 mph14.5 kmh 29.92 in1013.2 mb 0.00 in0.0 mm 0.00 in0.0 mm 0.00 in0.0 mm
04:34 AM 63.9°F17.7°C 58.2°F14.6°C 82% 3.0 mph SE4.8 kmh SE 10.0 mph16.1 kmh 29.92 in1013.2 mb 0.00 in0.0 mm 0.00 in0.0 mm 0.00 in0.0 mm
04:39 AM 64.0°F17.8°C 58.3°F14.6°C 82% 4.0 mph ESE6.4 kmh ESE 10.0 mph16.1 kmh 29.92 in1013.2 mb 0.00 in0.0 mm 0.00 in0.0 mm 0.00 in0.0 mm
04:44 AM 64.0°F17.8°C 58.3°F14.6°C 82% 2.0 mph SE3.2 kmh SE 10.0 mph16.1 kmh 29.92 in1013.2 mb 0.00 in0.0 mm 0.00 in0.0 mm 0.00 in0.0 mm
04:49 AM 64.1°F17.8°C 58.4°F14.7°C 82% 1.0 mph S1.6 kmh S 12.0 mph19.3 kmh 29.92 in1013.2 mb 0.00 in0.0 mm 0.00 in0.0 mm 0.00 in0.0 mm
04:54 AM 64.0°F17.8°C 58.3°F14.6°C 82% Calm Calm -- 29.92 in1013.2 mb 0.00 in0.0 mm 0.00 in0.0 mm 0.00 in0.0 mm
04:59 AM 64.1°F17.8°C 58.0°F14.4°C 81% Calm Calm 9.0 mph14.5 kmh 29.91 in1012.9 mb 0.00 in0.0 mm 0.00 in0.0 mm 0.00 in0.0 mm
05:04 AM 64.1°F17.8°C 58.0°F14.4°C 81% 3.0 mph ESE4.8 kmh ESE 9.0 mph14.5 kmh 29.91 in1012.9 mb 0.00 in0.0 mm 0.00 in0.0 mm 0.00 in0.0 mm
05:09 AM 64.1°F17.8°C 58.0°F14.4°C 81% 3.0 mph SE4.8 kmh SE 10.0 mph16.1 kmh 29.92 in1013.2 mb 0.00 in0.0 mm 0.00 in0.0 mm 0.00 in0.0 mm
05:14 AM 64.1°F17.8°C 58.0°F14.4°C 81% 1.0 mph SE1.6 kmh SE 10.0 mph16.1 kmh 29.92 in1013.2 mb 0.00 in0.0 mm 0.00 in0.0 mm 0.00 in0.0 mm
05:19 AM 64.0°F17.8°C 57.9°F14.4°C 81% 3.0 mph SSE4.8 kmh SSE 11.0 mph17.7 kmh 29.92 in1013.2 mb 0.00 in0.0 mm 0.00 in0.0 mm 0.00 in0.0 mm
05:24 AM 64.0°F17.8°C 57.9°F14.4°C 81% Calm Calm 12.0 mph19.3 kmh 29.92 in1013.2 mb 0.00 in0.0 mm 0.00 in0.0 mm 0.00 in0.0 mm
05:29 AM 64.0°F17.8°C 57.9°F14.4°C 81% Calm Calm 4.0 mph6.4 kmh 29.92 in1013.2 mb 0.00 in0.0 mm 0.00 in0.0 mm 0.00 in0.0 mm
05:34 AM 64.0°F17.8°C 57.9°F14.4°C 81% Calm Calm 7.0 mph11.3 kmh 29.92 in1013.2 mb 0.00 in0.0 mm 0.00 in0.0 mm 0.00 in0.0 mm
05:39 AM 63.9°F17.7°C 57.8°F14.3°C 81% Calm Calm 7.0 mph11.3 kmh 29.92 in1013.2 mb 0.00 in0.0 mm 0.00 in0.0 mm 0.00 in0.0 mm
05:44 AM 63.9°F17.7°C 57.8°F14.3°C 81% Calm Calm 12.0 mph19.3 kmh 29.92 in1013.2 mb 0.00 in0.0 mm 0.00 in0.0 mm 0.00 in0.0 mm
05:49 AM 63.8°F17.7°C 57.7°F14.3°C 81% 4.0 mph SE6.4 kmh SE 7.0 mph11.3 kmh 29.92 in1013.2 mb 0.00 in0.0 mm 0.00 in0.0 mm 0.00 in0.0 mm
05:54 AM 63.7°F17.6°C 57.6°F14.2°C 81% 1.0 mph ESE1.6 kmh ESE 10.0 mph16.1 kmh 29.92 in1013.2 mb 0.00 in0.0 mm 0.00 in0.0 mm 0.00 in0.0 mm
05:59 AM 63.7°F17.6°C 57.6°F14.2°C 81% 1.0 mph SSE1.6 kmh SSE 13.0 mph20.9 kmh 29.91 in1012.9 mb 0.00 in0.0 mm 0.00 in0.0 mm 0.00 in0.0 mm
06:04 AM 63.6°F17.6°C 57.5°F14.2°C 81% 1.0 mph SE1.6 kmh SE 13.0 mph20.9 kmh 29.91 in1012.9 mb 0.00 in0.0 mm 0.00 in0.0 mm 0.00 in0.0 mm
06:09 AM 63.5°F17.5°C 57.4°F14.1°C 81% 5.0 mph ESE8.0 kmh ESE 13.0 mph20.9 kmh 29.91 in1012.9 mb 0.00 in0.0 mm 0.00 in0.0 mm 0.00 in0.0 mm
06:14 AM 63.5°F17.5°C 57.4°F14.1°C 81% Calm Calm 4.0 mph6.4 kmh 29.92 in1013.2 mb 0.00 in0.0 mm 0.00 in0.0 mm 0.00 in0.0 mm
06:19 AM 63.5°F17.5°C 57.4°F14.1°C 81% Calm Calm 10.0 mph16.1 kmh 29.92 in1013.2 mb 0.00 in0.0 mm 0.00 in0.0 mm 0.00 in0.0 mm
06:24 AM 63.5°F17.5°C 57.4°F14.1°C 81% 2.0 mph SE3.2 kmh SE 10.0 mph16.1 kmh 29.92 in1013.2 mb 0.00 in0.0 mm 0.00 in0.0 mm 0.00 in0.0 mm
06:29 AM 63.4°F17.4°C 57.4°F14.1°C 81% Calm Calm 10.0 mph16.1 kmh 29.92 in1013.2 mb 0.00 in0.0 mm 0.00 in0.0 mm 0.00 in0.0 mm
06:34 AM 63.4°F17.4°C 57.4°F14.1°C 81% 1.0 mph S1.6 kmh S 10.0 mph16.1 kmh 29.92 in1013.2 mb 0.00 in0.0 mm 0.00 in0.0 mm 0.00 in0.0 mm
06:39 AM 63.4°F17.4°C 57.4°F14.1°C 81% 4.0 mph SE6.4 kmh SE 10.0 mph16.1 kmh 29.92 in1013.2 mb 0.00 in0.0 mm 0.00 in0.0 mm 0.00 in0.0 mm
06:44 AM 63.5°F17.5°C 57.4°F14.1°C 81% 4.0 mph E6.4 kmh E 10.0 mph16.1 kmh 29.91 in1012.9 mb 0.00 in0.0 mm 0.00 in0.0 mm 0.00 in0.0 mm
06:49 AM 63.5°F17.5°C 57.4°F14.1°C 81% 4.0 mph ESE6.4 kmh ESE 12.0 mph19.3 kmh 29.92 in1013.2 mb 0.00 in0.0 mm 0.00 in0.0 mm 0.00 in0.0 mm
06:54 AM 63.5°F17.5°C 57.4°F14.1°C 81% 1.0 mph E1.6 kmh E 13.0 mph20.9 kmh 29.92 in1013.2 mb 0.00 in0.0 mm 0.00 in0.0 mm 0.00 in0.0 mm
06:59 AM 63.5°F17.5°C 57.8°F14.3°C 82% Calm Calm 8.0 mph12.9 kmh 29.92 in1013.2 mb 0.00 in0.0 mm 0.00 in0.0 mm 0.00 in0.0 mm
07:04 AM 63.5°F17.5°C 57.8°F14.3°C 82% 3.0 mph E4.8 kmh E 8.0 mph12.9 kmh 29.92 in1013.2 mb 0.00 in0.0 mm 0.00 in0.0 mm 0.00 in0.0 mm
07:09 AM 63.5°F17.5°C 57.8°F14.3°C 82% 7.0 mph SE11.3 kmh SE 9.0 mph14.5 kmh 29.91 in1012.9 mb 0.00 in0.0 mm 0.00 in0.0 mm 0.00 in0.0 mm
07:14 AM 63.6°F17.6°C 57.9°F14.4°C 82% Calm Calm 10.0 mph16.1 kmh 29.91 in1012.9 mb 0.00 in0.0 mm 0.00 in0.0 mm 0.00 in0.0 mm
07:19 AM 63.7°F17.6°C 58.0°F14.4°C 82% Calm Calm 10.0 mph16.1 kmh 29.92 in1013.2 mb 0.00 in0.0 mm 0.00 in0.0 mm 0.00 in0.0 mm
07:24 AM 63.7°F17.6°C 58.0°F14.4°C 82% 5.0 mph ESE8.0 kmh ESE 8.0 mph12.9 kmh 29.92 in1013.2 mb 0.00 in0.0 mm 0.00 in0.0 mm 0.00 in0.0 mm
07:29 AM 63.7°F17.6°C 58.0°F14.4°C 82% Calm Calm 6.0 mph9.7 kmh 29.92 in1013.2 mb 0.00 in0.0 mm 0.00 in0.0 mm 0.00 in0.0 mm
07:34 AM 63.9°F17.7°C 58.2°F14.6°C 82% Calm Calm 8.0 mph12.9 kmh 29.92 in1013.2 mb 0.00 in0.0 mm 0.00 in0.0 mm 0.00 in0.0 mm
07:39 AM 64.0°F17.8°C 58.3°F14.6°C 82% Calm Calm 7.0 mph11.3 kmh 29.92 in1013.2 mb 0.00 in0.0 mm 0.00 in0.0 mm 0.00 in0.0 mm
07:44 AM 64.0°F17.8°C 58.3°F14.6°C 82% 7.0 mph SSW11.3 kmh SSW 11.0 mph17.7 kmh 29.92 in1013.2 mb 0.00 in0.0 mm 0.00 in0.0 mm 0.00 in0.0 mm
07:49 AM 64.0°F17.8°C 58.3°F14.6°C 82% Calm Calm 11.0 mph17.7 kmh 29.92 in1013.2 mb 0.00 in0.0 mm 0.00 in0.0 mm 0.00 in0.0 mm
07:54 AM 64.1°F17.8°C 58.4°F14.7°C 82% 4.0 mph SSE6.4 kmh SSE 11.0 mph17.7 kmh 29.92 in1013.2 mb 0.00 in0.0 mm 0.00 in0.0 mm 0.00 in0.0 mm
07:59 AM 64.1°F17.8°C 58.4°F14.7°C 82% Calm Calm 11.0 mph17.7 kmh 29.92 in1013.2 mb 0.00 in0.0 mm 0.00 in0.0 mm 0.00 in0.0 mm
08:04 AM 64.2°F17.9°C 58.5°F14.7°C 82% Calm Calm 9.0 mph14.5 kmh 29.92 in1013.2 mb 0.00 in0.0 mm 0.00 in0.0 mm 0.00 in0.0 mm
08:09 AM 64.3°F17.9°C 58.6°F14.8°C 82% 4.0 mph SE6.4 kmh SE 8.0 mph12.9 kmh 29.92 in1013.2 mb 0.00 in0.0 mm 0.00 in0.0 mm 0.00 in0.0 mm
08:14 AM 64.5°F18.1°C 58.8°F14.9°C 82% 2.0 mph S3.2 kmh S 7.0 mph11.3 kmh 29.92 in1013.2 mb 0.00 in0.0 mm 0.00 in0.0 mm 0.00 in0.0 mm
08:19 AM 64.7°F18.2°C 59.0°F15.0°C 82% Calm Calm 8.0 mph12.9 kmh 29.91 in1012.9 mb 0.00 in0.0 mm 0.00 in0.0 mm 0.00 in0.0 mm
08:24 AM 64.7°F18.2°C 59.0°F15.0°C 82% Calm Calm 5.0 mph8.0 kmh 29.91 in1012.9 mb 0.00 in0.0 mm 0.00 in0.0 mm 0.00 in0.0 mm
08:29 AM 64.9°F18.3°C 58.8°F14.9°C 81% 2.0 mph S3.2 kmh S 2.0 mph3.2 kmh 29.91 in1012.9 mb 0.00 in0.0 mm 0.00 in0.0 mm 0.00 in0.0 mm
08:34 AM 65.0°F18.3°C 58.9°F14.9°C 81% 3.0 mph SE4.8 kmh SE 16.0 mph25.7 kmh 29.91 in1012.9 mb 0.00 in0.0 mm 0.00 in0.0 mm 0.00 in0.0 mm
08:39 AM 65.1°F18.4°C 59.0°F15.0°C 81% Calm Calm 16.0 mph25.7 kmh 29.92 in1013.2 mb 0.00 in0.0 mm 0.00 in0.0 mm 0.00 in0.0 mm
08:44 AM 65.3°F18.5°C 59.2°F15.1°C 81% Calm Calm 16.0 mph25.7 kmh 29.91 in1012.9 mb 0.00 in0.0 mm 0.00 in0.0 mm 0.00 in0.0 mm
08:49 AM 65.5°F18.6°C 59.4°F15.2°C 81% 5.0 mph ESE8.0 kmh ESE 16.0 mph25.7 kmh 29.92 in1013.2 mb 0.00 in0.0 mm 0.00 in0.0 mm 0.00 in0.0 mm
08:54 AM 65.7°F18.7°C 59.6°F15.3°C 81% 2.0 mph SE3.2 kmh SE 12.0 mph19.3 kmh 29.91 in1012.9 mb 0.00 in0.0 mm 0.00 in0.0 mm 0.00 in0.0 mm
08:59 AM 65.8°F18.8°C 59.3°F15.2°C 80% 4.0 mph SSW6.4 kmh SSW 14.0 mph22.5 kmh 29.91 in1012.9 mb 0.00 in0.0 mm 0.00 in0.0 mm 0.00 in0.0 mm
09:04 AM 65.9°F18.8°C 59.4°F15.2°C 80% 3.0 mph S4.8 kmh S 14.0 mph22.5 kmh 29.91 in1012.9 mb 0.00 in0.0 mm 0.00 in0.0 mm 0.00 in0.0 mm
09:09 AM 66.1°F18.9°C 60.0°F15.6°C 81% 2.0 mph S3.2 kmh S 14.0 mph22.5 kmh 29.91 in1012.9 mb 0.00 in0.0 mm 0.00 in0.0 mm 0.00 in0.0 mm
09:14 AM 66.2°F19.0°C 59.7°F15.4°C 80% Calm Calm 14.0 mph22.5 kmh 29.91 in1012.9 mb 0.00 in0.0 mm 0.00 in0.0 mm 0.00 in0.0 mm
09:19 AM 66.4°F19.1°C 59.9°F15.5°C 80% Calm Calm 2.0 mph3.2 kmh 29.91 in1012.9 mb 0.00 in0.0 mm 0.00 in0.0 mm 0.00 in0.0 mm
09:24 AM 66.7°F19.3°C 60.2°F15.7°C 80% Calm Calm 8.0 mph12.9 kmh 29.91 in1012.9 mb 0.00 in0.0 mm 0.00 in0.0 mm 0.00 in0.0 mm
09:29 AM 67.1°F19.5°C 60.6°F15.9°C 80% Calm Calm 16.0 mph25.7 kmh 29.91 in1012.9 mb 0.00 in0.0 mm 0.00 in0.0 mm 0.00 in0.0 mm
09:34 AM 67.5°F19.7°C 60.6°F15.9°C 79% 4.0 mph S6.4 kmh S 6.0 mph9.7 kmh 29.91 in1012.9 mb 0.00 in0.0 mm 0.00 in0.0 mm 0.00 in0.0 mm
09:39 AM 67.7°F19.8°C 60.8°F16.0°C 79% 2.0 mph SSW3.2 kmh SSW 12.0 mph19.3 kmh 29.90 in1012.5 mb 0.00 in0.0 mm 0.00 in0.0 mm 0.00 in0.0 mm
09:44 AM 68.6°F20.3°C 61.3°F16.3°C 78% 5.0 mph SE8.0 kmh SE 12.0 mph19.3 kmh 29.90 in1012.5 mb 0.00 in0.0 mm 0.00 in0.0 mm 0.00 in0.0 mm
09:49 AM 68.8°F20.4°C 61.1°F16.2°C 77% 6.0 mph SE9.7 kmh SE 19.0 mph30.6 kmh 29.90 in1012.5 mb 0.00 in0.0 mm 0.00 in0.0 mm 0.00 in0.0 mm
09:54 AM 68.5°F20.3°C 61.2°F16.2°C 78% Calm Calm 19.0 mph30.6 kmh 29.90 in1012.5 mb 0.00 in0.0 mm 0.00 in0.0 mm 0.00 in0.0 mm
09:59 AM 68.5°F20.3°C 61.2°F16.2°C 78% 5.0 mph SSE8.0 kmh SSE 19.0 mph30.6 kmh 29.90 in1012.5 mb 0.00 in0.0 mm 0.00 in0.0 mm 0.00 in0.0 mm
10:04 AM 68.5°F20.3°C 61.2°F16.2°C 78% 2.0 mph WSW3.2 kmh WSW 19.0 mph30.6 kmh 29.90 in1012.5 mb 0.00 in0.0 mm 0.00 in0.0 mm 0.00 in0.0 mm
10:09 AM 68.8°F20.4°C 61.5°F16.4°C 78% 3.0 mph SE4.8 kmh SE 12.0 mph19.3 kmh 29.90 in1012.5 mb 0.00 in0.0 mm 0.00 in0.0 mm 0.00 in0.0 mm
10:14 AM 68.9°F20.5°C 61.6°F16.4°C 78% Calm Calm 12.0 mph19.3 kmh 29.89 in1012.2 mb 0.00 in0.0 mm 0.00 in0.0 mm 0.00 in0.0 mm
10:19 AM 70.1°F21.2°C 63.1°F17.3°C 79% 7.0 mph S11.3 kmh S 12.0 mph19.3 kmh 29.89 in1012.2 mb 0.00 in0.0 mm 0.00 in0.0 mm 0.00 in0.0 mm
10:24 AM 70.5°F21.4°C 62.0°F16.7°C 75% 3.0 mph S4.8 kmh S 14.0 mph22.5 kmh 29.89 in1012.2 mb 0.00 in0.0 mm 0.00 in0.0 mm 0.00 in0.0 mm
10:29 AM 70.3°F21.3°C 61.8°F16.6°C 75% Calm Calm 19.0 mph30.6 kmh 29.89 in1012.2 mb 0.00 in0.0 mm 0.00 in0.0 mm 0.00 in0.0 mm
10:34 AM 70.3°F21.3°C 61.4°F16.3°C 74% 4.0 mph SSW6.4 kmh SSW 21.0 mph33.8 kmh 29.90 in1012.5 mb 0.00 in0.0 mm 0.00 in0.0 mm 0.00 in0.0 mm
10:39 AM 69.7°F20.9°C 61.2°F16.2°C 75% 8.0 mph S12.9 kmh S 21.0 mph33.8 kmh 29.89 in1012.2 mb 0.00 in0.0 mm 0.00 in0.0 mm 0.00 in0.0 mm
10:44 AM 69.6°F20.9°C 61.5°F16.4°C 76% 7.0 mph S11.3 kmh S 21.0 mph33.8 kmh 29.89 in1012.2 mb 0.00 in0.0 mm 0.00 in0.0 mm 0.00 in0.0 mm
10:49 AM 69.5°F20.8°C 61.8°F16.6°C 77% 3.0 mph S4.8 kmh S 21.0 mph33.8 kmh 29.89 in1012.2 mb 0.00 in0.0 mm 0.00 in0.0 mm 0.00 in0.0 mm
10:54 AM 69.6°F20.9°C 62.3°F16.8°C 78% Calm Calm 18.0 mph29.0 kmh 29.89 in1012.2 mb 0.00 in0.0 mm 0.00 in0.0 mm 0.00 in0.0 mm
10:59 AM 69.8°F21.0°C 62.1°F16.7°C 77% 12.0 mph SSW19.3 kmh SSW 18.0 mph29.0 kmh 29.89 in1012.2 mb 0.00 in0.0 mm 0.00 in0.0 mm 0.00 in0.0 mm
11:04 AM 69.7°F20.9°C 62.0°F16.7°C 77% 7.0 mph SSW11.3 kmh SSW 14.0 mph22.5 kmh 29.89 in1012.2 mb 0.00 in0.0 mm 0.00 in0.0 mm 0.00 in0.0 mm
11:09 AM 69.9°F21.1°C 62.2°F16.8°C 77% 4.0 mph SSW6.4 kmh SSW 14.0 mph22.5 kmh 29.88 in1011.9 mb 0.00 in0.0 mm 0.00 in0.0 mm 0.00 in0.0 mm
11:14 AM 70.1°F21.2°C 62.4°F16.9°C 77% Calm Calm 13.0 mph20.9 kmh 29.88 in1011.9 mb 0.00 in0.0 mm 0.00 in0.0 mm 0.00 in0.0 mm
11:19 AM 70.8°F21.6°C 63.0°F17.2°C 77% Calm Calm 7.0 mph11.3 kmh 29.88 in1011.9 mb 0.00 in0.0 mm 0.00 in0.0 mm 0.00 in0.0 mm
11:24 AM 71.2°F21.8°C 63.1°F17.3°C 76% 3.0 mph S4.8 kmh S 12.0 mph19.3 kmh 29.88 in1011.9 mb 0.00 in0.0 mm 0.00 in0.0 mm 0.00 in0.0 mm
11:29 AM 71.1°F21.7°C 63.0°F17.2°C 76% 3.0 mph S4.8 kmh S 16.0 mph25.7 kmh 29.88 in1011.9 mb 0.00 in0.0 mm 0.00 in0.0 mm 0.00 in0.0 mm
11:34 AM 71.5°F21.9°C 63.0°F17.2°C 75% 8.0 mph SW12.9 kmh SW 19.0 mph30.6 kmh 29.88 in1011.9 mb 0.00 in0.0 mm 0.00 in0.0 mm 0.00 in0.0 mm
11:39 AM 71.7°F22.1°C 63.1°F17.3°C 75% Calm Calm 19.0 mph30.6 kmh 29.88 in1011.9 mb 0.00 in0.0 mm 0.00 in0.0 mm 0.00 in0.0 mm
11:44 AM 71.8°F22.1°C 63.2°F17.3°C 75% 2.0 mph S3.2 kmh S 19.0 mph30.6 kmh 29.88 in1011.9 mb 0.00 in0.0 mm 0.00 in0.0 mm 0.00 in0.0 mm
11:49 AM 73.1°F22.8°C 64.5°F18.1°C 75% 4.0 mph SSW6.4 kmh SSW 19.0 mph30.6 kmh 29.88 in1011.9 mb 0.00 in0.0 mm 0.00 in0.0 mm 0.00 in0.0 mm
11:54 AM 73.1°F22.8°C 63.3°F17.4°C 72% 10.0 mph S16.1 kmh S 19.0 mph30.6 kmh 29.88 in1011.9 mb 0.00 in0.0 mm 0.00 in0.0 mm 0.00 in0.0 mm
11:59 AM 73.1°F22.8°C 63.7°F17.6°C 73% 5.0 mph SW8.0 kmh SW 19.0 mph30.6 kmh 29.88 in1011.9 mb 0.00 in0.0 mm 0.00 in0.0 mm 0.00 in0.0 mm
12:04 PM 74.0°F23.3°C 64.6°F18.1°C 73% 5.0 mph S8.0 kmh S 19.0 mph30.6 kmh 29.87 in1011.5 mb 0.00 in0.0 mm 0.00 in0.0 mm 0.00 in0.0 mm
12:09 PM 74.5°F23.6°C 64.6°F18.1°C 72% 7.0 mph SSW11.3 kmh SSW 19.0 mph30.6 kmh 29.87 in1011.5 mb 0.00 in0.0 mm 0.00 in0.0 mm 0.00 in0.0 mm
12:14 PM 75.3°F24.1°C 64.1°F17.8°C 69% 11.0 mph S17.7 kmh S 18.0 mph29.0 kmh 29.87 in1011.5 mb 0.00 in0.0 mm 0.00 in0.0 mm 0.00 in0.0 mm
12:19 PM 75.1°F23.9°C 64.4°F18.0°C 70% 14.0 mph S22.5 kmh S 18.0 mph29.0 kmh 29.87 in1011.5 mb 0.00 in0.0 mm 0.00 in0.0 mm 0.00 in0.0 mm
12:24 PM 74.7°F23.7°C 64.0°F17.8°C 70% 1.0 mph S1.6 kmh S 22.0 mph35.4 kmh 29.87 in1011.5 mb 0.00 in0.0 mm 0.00 in0.0 mm 0.00 in0.0 mm
12:29 PM 74.5°F23.6°C 63.8°F17.7°C 70% 5.0 mph SW8.0 kmh SW 22.0 mph35.4 kmh 29.88 in1011.9 mb 0.00 in0.0 mm 0.00 in0.0 mm 0.00 in0.0 mm
12:34 PM 74.7°F23.7°C 64.0°F17.8°C 70% 12.0 mph S19.3 kmh S 22.0 mph35.4 kmh 29.87 in1011.5 mb 0.00 in0.0 mm 0.00 in0.0 mm 0.00 in0.0 mm
12:39 PM 74.7°F23.7°C 64.4°F18.0°C 71% 6.0 mph SW9.7 kmh SW 22.0 mph35.4 kmh 29.87 in1011.5 mb 0.00 in0.0 mm 0.00 in0.0 mm 0.00 in0.0 mm
12:44 PM 76.0°F24.4°C 65.6°F18.7°C 71% Calm Calm 18.0 mph29.0 kmh 29.86 in1011.2 mb 0.00 in0.0 mm 0.00 in0.0 mm 0.00 in0.0 mm
12:49 PM 76.4°F24.7°C 64.8°F18.2°C 68% 15.0 mph SW24.1 kmh SW 18.0 mph29.0 kmh 29.86 in1011.2 mb 0.00 in0.0 mm 0.00 in0.0 mm 0.00 in0.0 mm
12:54 PM 76.1°F24.5°C 65.3°F18.5°C 70% 1.0 mph SSW1.6 kmh SSW 18.0 mph29.0 kmh 29.86 in1011.2 mb 0.00 in0.0 mm 0.00 in0.0 mm 0.00 in0.0 mm
12:59 PM 76.0°F24.4°C 64.4°F18.0°C 68% 8.0 mph SSW12.9 kmh SSW 19.0 mph30.6 kmh 29.86 in1011.2 mb 0.00 in0.0 mm 0.00 in0.0 mm 0.00 in0.0 mm
01:04 PM 76.1°F24.5°C 64.0°F17.8°C 67% 12.0 mph S19.3 kmh S 19.0 mph30.6 kmh 29.85 in1010.8 mb 0.00 in0.0 mm 0.00 in0.0 mm 0.00 in0.0 mm
01:09 PM 76.2°F24.6°C 64.6°F18.1°C 68% 7.0 mph SSW11.3 kmh SSW 19.0 mph30.6 kmh 29.85 in1010.8 mb 0.00 in0.0 mm 0.00 in0.0 mm 0.00 in0.0 mm
01:19 PM 77.8°F25.4°C 66.1°F18.9°C 68% 2.0 mph S3.2 kmh S 16.0 mph25.7 kmh 29.84 in1010.5 mb 0.00 in0.0 mm 0.00 in0.0 mm 0.00 in0.0 mm
01:24 PM 78.2°F25.7°C 66.5°F19.2°C 68% 6.0 mph S9.7 kmh S 12.0 mph19.3 kmh 29.84 in1010.5 mb 0.00 in0.0 mm 0.00 in0.0 mm 0.00 in0.0 mm
01:29 PM 78.0°F25.6°C 65.8°F18.8°C 67% 10.0 mph SSW16.1 kmh SSW 13.0 mph20.9 kmh 29.84 in1010.5 mb 0.00 in0.0 mm 0.00 in0.0 mm 0.00 in0.0 mm
01:34 PM 77.7°F25.4°C 64.6°F18.1°C 65% 3.0 mph SSW4.8 kmh SSW 13.0 mph20.9 kmh 29.84 in1010.5 mb 0.00 in0.0 mm 0.00 in0.0 mm 0.00 in0.0 mm
01:39 PM 77.2°F25.1°C 64.6°F18.1°C 66% 1.0 mph S1.6 kmh S 13.0 mph20.9 kmh 29.84 in1010.5 mb 0.00 in0.0 mm 0.00 in0.0 mm 0.00 in0.0 mm
01:44 PM 77.5°F25.3°C 65.4°F18.6°C 67% 1.0 mph S1.6 kmh S 13.0 mph20.9 kmh 29.83 in1010.2 mb 0.00 in0.0 mm 0.00 in0.0 mm 0.00 in0.0 mm
01:49 PM 78.2°F25.7°C 66.0°F18.9°C 67% Calm Calm 12.0 mph19.3 kmh 29.83 in1010.2 mb 0.00 in0.0 mm 0.00 in0.0 mm 0.00 in0.0 mm
01:54 PM 78.4°F25.8°C 65.3°F18.5°C 65% Calm Calm 12.0 mph19.3 kmh 29.83 in1010.2 mb 0.00 in0.0 mm 0.00 in0.0 mm 0.00 in0.0 mm
01:59 PM 77.9°F25.5°C 65.7°F18.7°C 67% Calm Calm 9.0 mph14.5 kmh 29.83 in1010.2 mb 0.00 in0.0 mm 0.00 in0.0 mm 0.00 in0.0 mm
02:04 PM 77.7°F25.4°C 65.1°F18.4°C 66% 5.0 mph SE8.0 kmh SE 9.0 mph14.5 kmh 29.83 in1010.2 mb 0.00 in0.0 mm 0.00 in0.0 mm 0.00 in0.0 mm
02:09 PM 77.4°F25.2°C 65.3°F18.5°C 67% 3.0 mph SSW4.8 kmh SSW 11.0 mph17.7 kmh 29.82 in1009.8 mb 0.00 in0.0 mm 0.00 in0.0 mm 0.00 in0.0 mm
02:14 PM 78.2°F25.7°C 65.6°F18.7°C 66% Calm Calm 17.0 mph27.4 kmh 29.82 in1009.8 mb 0.00 in0.0 mm 0.00 in0.0 mm 0.00 in0.0 mm
02:19 PM 79.9°F26.6°C 68.1°F20.1°C 68% 9.0 mph S14.5 kmh S 17.0 mph27.4 kmh 29.82 in1009.8 mb 0.00 in0.0 mm 0.00 in0.0 mm 0.00 in0.0 mm
02:24 PM 79.6°F26.4°C 65.5°F18.6°C 63% Calm Calm 17.0 mph27.4 kmh 29.82 in1009.8 mb 0.00 in0.0 mm 0.00 in0.0 mm 0.00 in0.0 mm
02:29 PM 79.1°F26.2°C 64.6°F18.1°C 62% 2.0 mph S3.2 kmh S 17.0 mph27.4 kmh 29.82 in1009.8 mb 0.00 in0.0 mm 0.00 in0.0 mm 0.00 in0.0 mm
02:34 PM 78.3°F25.7°C 64.8°F18.2°C 64% 4.0 mph SSW6.4 kmh SSW 13.0 mph20.9 kmh 29.81 in1009.5 mb 0.00 in0.0 mm 0.00 in0.0 mm 0.00 in0.0 mm
02:39 PM 77.4°F25.2°C 65.3°F18.5°C 67% Calm Calm 13.0 mph20.9 kmh 29.81 in1009.5 mb 0.00 in0.0 mm 0.00 in0.0 mm 0.00 in0.0 mm
02:44 PM 76.8°F24.9°C 65.6°F18.7°C 69% Calm Calm 11.0 mph17.7 kmh 29.81 in1009.5 mb 0.00 in0.0 mm 0.00 in0.0 mm 0.00 in0.0 mm
02:49 PM 76.1°F24.5°C 66.6°F19.2°C 73% 8.0 mph SSW12.9 kmh SSW 21.0 mph33.8 kmh 29.83 in1010.2 mb 5.19 in131.8 mm 62.28 in1581.9 mm 0.12 in3.0 mm
02:54 PM 73.8°F23.2°C 66.3°F19.1°C 78% 8.0 mph SSW12.9 kmh SSW 21.0 mph33.8 kmh 29.83 in1010.2 mb 1.31 in33.3 mm 0.00 in0.0 mm 0.35 in8.9 mm
02:59 PM 71.8°F22.1°C 65.5°F18.6°C 81% 6.0 mph SSW9.7 kmh SSW 21.0 mph33.8 kmh 29.83 in1010.2 mb 4.11 in104.4 mm 33.60 in853.4 mm 0.45 in11.4 mm
03:04 PM 70.5°F21.4°C 65.0°F18.3°C 83% 2.0 mph SSW3.2 kmh SSW 21.0 mph33.8 kmh 29.83 in1010.2 mb 0.78 in19.8 mm 0.00 in0.0 mm 0.61 in15.5 mm
03:09 PM 69.8°F21.0°C 65.0°F18.3°C 85% 1.0 mph NW1.6 kmh NW 15.0 mph24.1 kmh 29.83 in1010.2 mb 1.04 in26.4 mm 3.12 in79.2 mm 0.75 in19.1 mm
03:14 PM 69.2°F20.7°C 64.7°F18.2°C 86% 2.0 mph WNW3.2 kmh WNW 15.0 mph24.1 kmh 29.83 in1010.2 mb 0.52 in13.2 mm 0.00 in0.0 mm 0.80 in20.3 mm
03:19 PM 68.9°F20.5°C 64.8°F18.2°C 87% 1.0 mph W1.6 kmh W 7.0 mph11.3 kmh 29.83 in1010.2 mb 0.26 in6.6 mm 0.00 in0.0 mm 0.85 in21.6 mm
03:24 PM 68.8°F20.4°C 65.0°F18.3°C 88% 1.0 mph WNW1.6 kmh WNW 7.0 mph11.3 kmh 29.82 in1009.8 mb 0.20 in5.1 mm 0.00 in0.0 mm 0.86 in21.8 mm
03:29 PM 69.4°F20.8°C 65.9°F18.8°C 89% Calm Calm 1.0 mph1.6 kmh 29.82 in1009.8 mb 0.08 in2.0 mm 0.00 in0.0 mm 0.86 in21.8 mm
03:34 PM 70.4°F21.3°C 66.9°F19.4°C 89% Calm Calm -- 29.82 in1009.8 mb 0.05 in1.3 mm 0.00 in0.0 mm 0.86 in21.8 mm
03:39 PM 70.6°F21.4°C 67.1°F19.5°C 89% Calm Calm -- 29.82 in1009.8 mb 0.00 in0.0 mm 0.00 in0.0 mm 0.86 in21.8 mm
03:44 PM 70.6°F21.4°C 67.1°F19.5°C 89% Calm Calm -- 29.81 in1009.5 mb 0.00 in0.0 mm 0.00 in0.0 mm 0.86 in21.8 mm
03:49 PM 70.6°F21.4°C 67.1°F19.5°C 89% Calm Calm -- 29.81 in1009.5 mb 0.00 in0.0 mm 0.00 in0.0 mm 0.86 in21.8 mm
03:54 PM 72.0°F22.2°C 68.5°F20.3°C 89% Calm Calm -- 29.80 in1009.1 mb 0.00 in0.0 mm 0.00 in0.0 mm 0.86 in21.8 mm
03:59 PM 72.5°F22.5°C 68.7°F20.4°C 88% 1.0 mph WNW1.6 kmh WNW 2.0 mph3.2 kmh 29.81 in1009.5 mb 0.00 in0.0 mm 0.00 in0.0 mm 0.86 in21.8 mm
04:04 PM 73.3°F22.9°C 69.4°F20.8°C 88% Calm Calm -- 29.81 in1009.5 mb 0.00 in0.0 mm 0.00 in0.0 mm 0.86 in21.8 mm
04:09 PM 73.8°F23.2°C 69.6°F20.9°C 87% Calm Calm -- 29.81 in1009.5 mb 0.00 in0.0 mm 0.00 in0.0 mm 0.86 in21.8 mm
04:14 PM 74.3°F23.5°C 70.1°F21.2°C 87% Calm Calm -- 29.80 in1009.1 mb 0.00 in0.0 mm 0.00 in0.0 mm 0.86 in21.8 mm
04:19 PM 74.4°F23.6°C 69.8°F21.0°C 86% Calm Calm -- 29.80 in1009.1 mb 0.00 in0.0 mm 0.00 in0.0 mm 0.86 in21.8 mm
04:24 PM 73.8°F23.2°C 69.2°F20.7°C 86% Calm Calm -- 29.80 in1009.1 mb 0.00 in0.0 mm 0.00 in0.0 mm 0.86 in21.8 mm
04:29 PM 73.4°F23.0°C 68.8°F20.4°C 86% Calm Calm -- 29.80 in1009.1 mb 0.00 in0.0 mm 0.00 in0.0 mm 0.86 in21.8 mm
04:34 PM 73.3°F22.9°C 68.7°F20.4°C 86% Calm Calm -- 29.80 in1009.1 mb 0.00 in0.0 mm 0.00 in0.0 mm 0.86 in21.8 mm
04:39 PM 73.3°F22.9°C 69.1°F20.6°C 87% Calm Calm -- 29.79 in1008.8 mb 0.00 in0.0 mm 0.00 in0.0 mm 0.86 in21.8 mm
04:44 PM 73.3°F22.9°C 69.1°F20.6°C 87% Calm Calm -- 29.79 in1008.8 mb 0.00 in0.0 mm 0.00 in0.0 mm 0.86 in21.8 mm
04:49 PM 73.4°F23.0°C 69.2°F20.7°C 87% Calm Calm -- 29.79 in1008.8 mb 0.00 in0.0 mm 0.00 in0.0 mm 0.86 in21.8 mm
04:54 PM 73.3°F22.9°C 69.1°F20.6°C 87% Calm Calm -- 29.79 in1008.8 mb 0.00 in0.0 mm 0.00 in0.0 mm 0.86 in21.8 mm
04:59 PM 73.7°F23.2°C 69.5°F20.8°C 87% 2.0 mph S3.2 kmh S 9.0 mph14.5 kmh 29.80 in1009.1 mb 0.00 in0.0 mm 0.00 in0.0 mm 0.86 in21.8 mm
05:04 PM 74.3°F23.5°C 70.4°F21.3°C 88% Calm Calm -- 29.80 in1009.1 mb 0.00 in0.0 mm 0.00 in0.0 mm 0.86 in21.8 mm
05:09 PM 74.7°F23.7°C 70.5°F21.4°C 87% 3.0 mph S4.8 kmh S 6.0 mph9.7 kmh 29.80 in1009.1 mb 0.00 in0.0 mm 0.00 in0.0 mm 0.86 in21.8 mm
05:14 PM 74.7°F23.7°C 69.8°F21.0°C 85% Calm Calm -- 29.80 in1009.1 mb 0.00 in0.0 mm 0.00 in0.0 mm 0.86 in21.8 mm
05:19 PM 74.1°F23.4°C 68.1°F20.1°C 82% 2.0 mph SSW3.2 kmh SSW 13.0 mph20.9 kmh 29.80 in1009.1 mb 0.00 in0.0 mm 0.00 in0.0 mm 0.86 in21.8 mm
05:24 PM 73.5°F23.1°C 67.9°F19.9°C 83% Calm Calm 13.0 mph20.9 kmh 29.80 in1009.1 mb 0.00 in0.0 mm 0.00 in0.0 mm 0.86 in21.8 mm
05:29 PM 73.4°F23.0°C 67.8°F19.9°C 83% Calm Calm 13.0 mph20.9 kmh 29.79 in1008.8 mb 0.00 in0.0 mm 0.00 in0.0 mm 0.86 in21.8 mm
05:34 PM 73.8°F23.2°C 68.2°F20.1°C 83% Calm Calm 6.0 mph9.7 kmh 29.79 in1008.8 mb 0.00 in0.0 mm 0.00 in0.0 mm 0.86 in21.8 mm
05:39 PM 74.5°F23.6°C 68.9°F20.5°C 83% 1.0 mph SSW1.6 kmh SSW 6.0 mph9.7 kmh 29.79 in1008.8 mb 0.00 in0.0 mm 0.00 in0.0 mm 0.86 in21.8 mm
05:44 PM 74.8°F23.8°C 68.8°F20.4°C 82% Calm Calm 9.0 mph14.5 kmh 29.79 in1008.8 mb 0.00 in0.0 mm 0.00 in0.0 mm 0.86 in21.8 mm
05:49 PM 74.9°F23.8°C 68.9°F20.5°C 82% 4.0 mph SSW6.4 kmh SSW 7.0 mph11.3 kmh 29.79 in1008.8 mb 0.00 in0.0 mm 0.00 in0.0 mm 0.86 in21.8 mm
05:54 PM 75.1°F23.9°C 69.1°F20.6°C 82% 3.0 mph SSW4.8 kmh SSW 12.0 mph19.3 kmh 29.79 in1008.8 mb 0.00 in0.0 mm 0.00 in0.0 mm 0.86 in21.8 mm
05:59 PM 75.2°F24.0°C 68.4°F20.2°C 80% Calm Calm 8.0 mph12.9 kmh 29.79 in1008.8 mb 0.00 in0.0 mm 0.00 in0.0 mm 0.86 in21.8 mm
06:04 PM 75.4°F24.1°C 68.6°F20.3°C 80% Calm Calm 8.0 mph12.9 kmh 29.79 in1008.8 mb 0.00 in0.0 mm 0.00 in0.0 mm 0.86 in21.8 mm
06:09 PM 75.3°F24.1°C 68.9°F20.5°C 81% 2.0 mph SW3.2 kmh SW 3.0 mph4.8 kmh 29.79 in1008.8 mb 0.00 in0.0 mm 0.00 in0.0 mm 0.86 in21.8 mm
06:14 PM 75.2°F24.0°C 68.8°F20.4°C 81% Calm Calm 11.0 mph17.7 kmh 29.79 in1008.8 mb 0.00 in0.0 mm 0.00 in0.0 mm 0.86 in21.8 mm
06:19 PM 75.3°F24.1°C 68.5°F20.3°C 80% Calm Calm 11.0 mph17.7 kmh 29.79 in1008.8 mb 0.00 in0.0 mm 0.00 in0.0 mm 0.86 in21.8 mm
06:24 PM 75.2°F24.0°C 68.4°F20.2°C 80% 4.0 mph S6.4 kmh S 11.0 mph17.7 kmh 29.79 in1008.8 mb 0.00 in0.0 mm 0.00 in0.0 mm 0.86 in21.8 mm
06:29 PM 74.9°F23.8°C 67.4°F19.7°C 78% 5.0 mph SSW8.0 kmh SSW 16.0 mph25.7 kmh 29.79 in1008.8 mb 0.00 in0.0 mm 0.00 in0.0 mm 0.86 in21.8 mm
06:34 PM 74.4°F23.6°C 66.9°F19.4°C 78% 7.0 mph S11.3 kmh S 16.0 mph25.7 kmh 29.80 in1009.1 mb 0.00 in0.0 mm 0.00 in0.0 mm 0.86 in21.8 mm
06:39 PM 74.1°F23.4°C 67.4°F19.7°C 80% 6.0 mph SSW9.7 kmh SSW 16.0 mph25.7 kmh 29.80 in1009.1 mb 0.00 in0.0 mm 0.00 in0.0 mm 0.86 in21.8 mm
06:44 PM 73.5°F23.1°C 67.2°F19.6°C 81% Calm Calm 16.0 mph25.7 kmh 29.79 in1008.8 mb 0.00 in0.0 mm 0.00 in0.0 mm 0.86 in21.8 mm
06:49 PM 73.1°F22.8°C 67.1°F19.5°C 82% 3.0 mph S4.8 kmh S 8.0 mph12.9 kmh 29.79 in1008.8 mb 0.00 in0.0 mm 0.00 in0.0 mm 0.86 in21.8 mm
06:54 PM 72.9°F22.7°C 67.3°F19.6°C 83% Calm Calm 9.0 mph14.5 kmh 29.80 in1009.1 mb 0.58 in14.7 mm 6.96 in176.8 mm 0.88 in22.4 mm
06:59 PM 72.2°F22.3°C 67.0°F19.4°C 84% 7.0 mph S11.3 kmh S 19.0 mph30.6 kmh 29.80 in1009.1 mb 1.52 in38.6 mm 11.28 in286.5 mm 1.01 in25.7 mm
07:04 PM 70.9°F21.6°C 65.7°F18.7°C 84% 1.0 mph WSW1.6 kmh WSW 19.0 mph30.6 kmh 29.79 in1008.8 mb 0.14 in3.6 mm 0.00 in0.0 mm 1.05 in26.7 mm
07:09 PM 70.5°F21.4°C 66.0°F18.9°C 86% Calm Calm -- 29.79 in1008.8 mb 0.07 in1.8 mm 0.00 in0.0 mm 1.05 in26.7 mm
07:14 PM 70.6°F21.4°C 66.4°F19.1°C 87% Calm Calm -- 29.79 in1008.8 mb 0.04 in1.0 mm 0.00 in0.0 mm 1.05 in26.7 mm
07:19 PM 70.7°F21.5°C 66.5°F19.2°C 87% Calm Calm -- 29.79 in1008.8 mb 0.00 in0.0 mm 0.00 in0.0 mm 1.05 in26.7 mm
07:24 PM 70.7°F21.5°C 66.9°F19.4°C 88% Calm Calm -- 29.79 in1008.8 mb 0.00 in0.0 mm 0.00 in0.0 mm 1.05 in26.7 mm
07:29 PM 71.0°F21.7°C 67.2°F19.6°C 88% Calm Calm -- 29.79 in1008.8 mb 0.00 in0.0 mm 0.00 in0.0 mm 1.05 in26.7 mm
07:34 PM 71.0°F21.7°C 67.2°F19.6°C 88% Calm Calm -- 29.79 in1008.8 mb 0.00 in0.0 mm 0.00 in0.0 mm 1.05 in26.7 mm
07:39 PM 71.1°F21.7°C 67.6°F19.8°C 89% Calm Calm -- 29.79 in1008.8 mb 0.00 in0.0 mm 0.00 in0.0 mm 1.05 in26.7 mm
07:44 PM 71.1°F21.7°C 67.6°F19.8°C 89% Calm Calm -- 29.80 in1009.1 mb 0.00 in0.0 mm 0.00 in0.0 mm 1.05 in26.7 mm
07:49 PM 70.7°F21.5°C 66.9°F19.4°C 88% Calm Calm -- 29.80 in1009.1 mb 0.00 in0.0 mm 0.00 in0.0 mm 1.05 in26.7 mm
07:54 PM 70.1°F21.2°C 66.3°F19.1°C 88% Calm Calm -- 29.80 in1009.1 mb 0.00 in0.0 mm 0.00 in0.0 mm 1.05 in26.7 mm
07:59 PM 69.8°F21.0°C 66.0°F18.9°C 88% Calm Calm -- 29.80 in1009.1 mb 0.00 in0.0 mm 0.00 in0.0 mm 1.05 in26.7 mm
08:04 PM 69.5°F20.8°C 65.7°F18.7°C 88% 4.0 mph WSW6.4 kmh WSW 8.0 mph12.9 kmh 29.82 in1009.8 mb 0.93 in23.6 mm 1.01 in25.7 mm 1.09 in27.7 mm
08:09 PM 69.2°F20.7°C 65.1°F18.4°C 87% Calm Calm 12.0 mph19.3 kmh 29.81 in1009.5 mb 1.59 in40.4 mm 7.92 in201.2 mm 1.32 in33.5 mm
08:14 PM 68.7°F20.4°C 64.9°F18.3°C 88% Calm Calm -- 29.80 in1009.1 mb 0.18 in4.6 mm 0.00 in0.0 mm 1.37 in34.8 mm
08:19 PM 68.4°F20.2°C 64.6°F18.1°C 88% Calm Calm -- 29.81 in1009.5 mb 0.07 in1.8 mm 0.00 in0.0 mm 1.37 in34.8 mm
08:24 PM 68.2°F20.1°C 64.8°F18.2°C 89% Calm Calm -- 29.81 in1009.5 mb 0.05 in1.3 mm 0.00 in0.0 mm 1.37 in34.8 mm
08:29 PM 68.0°F20.0°C 64.6°F18.1°C 89% Calm Calm -- 29.81 in1009.5 mb 0.00 in0.0 mm 0.00 in0.0 mm 1.37 in34.8 mm
08:34 PM 67.9°F19.9°C 64.5°F18.1°C 89% Calm Calm -- 29.81 in1009.5 mb 0.00 in0.0 mm 0.00 in0.0 mm 1.37 in34.8 mm
08:39 PM 67.8°F19.9°C 64.4°F18.0°C 89% Calm Calm -- 29.81 in1009.5 mb 0.00 in0.0 mm 0.00 in0.0 mm 1.37 in34.8 mm
08:44 PM 67.8°F19.9°C 64.4°F18.0°C 89% Calm Calm -- 29.81 in1009.5 mb 0.00 in0.0 mm 0.00 in0.0 mm 1.37 in34.8 mm
08:49 PM 67.7°F19.8°C 64.3°F17.9°C 89% Calm Calm -- 29.81 in1009.5 mb 0.00 in0.0 mm 0.00 in0.0 mm 1.37 in34.8 mm
08:54 PM 67.6°F19.8°C 64.2°F17.9°C 89% Calm Calm -- 29.82 in1009.8 mb 0.00 in0.0 mm 0.00 in0.0 mm 1.37 in34.8 mm
08:59 PM 67.5°F19.7°C 64.1°F17.8°C 89% Calm Calm -- 29.82 in1009.8 mb 0.00 in0.0 mm 0.00 in0.0 mm 1.37 in34.8 mm
09:04 PM 67.3°F19.6°C 63.9°F17.7°C 89% Calm Calm -- 29.82 in1009.8 mb 0.00 in0.0 mm 0.00 in0.0 mm 1.37 in34.8 mm
09:09 PM 67.2°F19.6°C 63.8°F17.7°C 89% Calm Calm -- 29.82 in1009.8 mb 0.00 in0.0 mm 0.00 in0.0 mm 1.37 in34.8 mm
09:14 PM 67.1°F19.5°C 63.7°F17.6°C 89% Calm Calm -- 29.82 in1009.8 mb 0.00 in0.0 mm 0.00 in0.0 mm 1.37 in34.8 mm
09:19 PM 67.1°F19.5°C 63.7°F17.6°C 89% Calm Calm -- 29.83 in1010.2 mb 0.00 in0.0 mm 0.00 in0.0 mm 1.37 in34.8 mm
09:24 PM 67.0°F19.4°C 63.6°F17.6°C 89% Calm Calm -- 29.83 in1010.2 mb 0.00 in0.0 mm 0.00 in0.0 mm 1.37 in34.8 mm
09:29 PM 66.9°F19.4°C 63.5°F17.5°C 89% Calm Calm -- 29.84 in1010.5 mb 0.00 in0.0 mm 0.00 in0.0 mm 1.37 in34.8 mm
09:34 PM 67.0°F19.4°C 63.6°F17.6°C 89% Calm Calm -- 29.84 in1010.5 mb 0.00 in0.0 mm 0.00 in0.0 mm 1.37 in34.8 mm
09:39 PM 67.2°F19.6°C 63.8°F17.7°C 89% Calm Calm -- 29.85 in1010.8 mb 0.00 in0.0 mm 0.00 in0.0 mm 1.37 in34.8 mm
09:44 PM 67.3°F19.6°C 63.9°F17.7°C 89% Calm Calm -- 29.85 in1010.8 mb 0.00 in0.0 mm 0.00 in0.0 mm 1.37 in34.8 mm
09:49 PM 67.3°F19.6°C 63.9°F17.7°C 89% Calm Calm -- 29.85 in1010.8 mb 0.00 in0.0 mm 0.00 in0.0 mm 1.37 in34.8 mm
09:54 PM 67.2°F19.6°C 63.8°F17.7°C 89% Calm Calm -- 29.85 in1010.8 mb 0.00 in0.0 mm 0.00 in0.0 mm 1.37 in34.8 mm
09:59 PM 67.1°F19.5°C 63.7°F17.6°C 89% Calm Calm -- 29.85 in1010.8 mb 0.00 in0.0 mm 0.00 in0.0 mm 1.37 in34.8 mm
10:04 PM 67.1°F19.5°C 63.7°F17.6°C 89% Calm Calm -- 29.86 in1011.2 mb 0.00 in0.0 mm 0.00 in0.0 mm 1.37 in34.8 mm
10:09 PM 67.0°F19.4°C 63.6°F17.6°C 89% Calm Calm -- 29.86 in1011.2 mb 0.00 in0.0 mm 0.00 in0.0 mm 1.37 in34.8 mm
10:14 PM 66.9°F19.4°C 63.5°F17.5°C 89% Calm Calm -- 29.86 in1011.2 mb 0.00 in0.0 mm 0.00 in0.0 mm 1.37 in34.8 mm
10:19 PM 66.9°F19.4°C 63.5°F17.5°C 89% Calm Calm -- 29.86 in1011.2 mb 0.00 in0.0 mm 0.00 in0.0 mm 1.37 in34.8 mm
10:24 PM 66.8°F19.3°C 63.4°F17.4°C 89% Calm Calm -- 29.87 in1011.5 mb 0.00 in0.0 mm 0.00 in0.0 mm 1.37 in34.8 mm
10:29 PM 66.8°F19.3°C 63.4°F17.4°C 89% Calm Calm -- 29.87 in1011.5 mb 0.00 in0.0 mm 0.00 in0.0 mm 1.37 in34.8 mm
10:34 PM 66.8°F19.3°C 63.4°F17.4°C 89% Calm Calm -- 29.87 in1011.5 mb 0.00 in0.0 mm 0.00 in0.0 mm 1.37 in34.8 mm
10:39 PM 66.7°F19.3°C 63.3°F17.4°C 89% Calm Calm -- 29.87 in1011.5 mb 0.00 in0.0 mm 0.00 in0.0 mm 1.37 in34.8 mm
10:44 PM 66.7°F19.3°C 63.3°F17.4°C 89% Calm Calm -- 29.87 in1011.5 mb 0.00 in0.0 mm 0.00 in0.0 mm 1.37 in34.8 mm
10:49 PM 66.7°F19.3°C 63.3°F17.4°C 89% Calm Calm -- 29.87 in1011.5 mb 0.00 in0.0 mm 0.00 in0.0 mm 1.37 in34.8 mm
10:54 PM 66.6°F19.2°C 63.5°F17.5°C 90% Calm Calm -- 29.87 in1011.5 mb 0.00 in0.0 mm 0.00 in0.0 mm 1.37 in34.8 mm
10:59 PM 66.6°F19.2°C 63.2°F17.3°C 89% Calm Calm -- 29.87 in1011.5 mb 0.00 in0.0 mm 0.00 in0.0 mm 1.37 in34.8 mm
11:04 PM 66.6°F19.2°C 63.2°F17.3°C 89% Calm Calm -- 29.87 in1011.5 mb 0.00 in0.0 mm 0.00 in0.0 mm 1.37 in34.8 mm
11:09 PM 66.6°F19.2°C 63.2°F17.3°C 89% Calm Calm -- 29.87 in1011.5 mb 0.00 in0.0 mm 0.00 in0.0 mm 1.37 in34.8 mm
11:14 PM 66.5°F19.2°C 63.1°F17.3°C 89% Calm Calm -- 29.88 in1011.9 mb 0.00 in0.0 mm 0.00 in0.0 mm 1.37 in34.8 mm
11:19 PM 66.4°F19.1°C 63.0°F17.2°C 89% Calm Calm -- 29.88 in1011.9 mb 0.00 in0.0 mm 0.00 in0.0 mm 1.37 in34.8 mm
11:24 PM 66.4°F19.1°C 63.0°F17.2°C 89% Calm Calm -- 29.88 in1011.9 mb 0.00 in0.0 mm 0.00 in0.0 mm 1.37 in34.8 mm
11:29 PM 66.3°F19.1°C 62.9°F17.2°C 89% Calm Calm -- 29.88 in1011.9 mb 0.00 in0.0 mm 0.00 in0.0 mm 1.37 in34.8 mm
11:34 PM 66.2°F19.0°C 62.8°F17.1°C 89% Calm Calm -- 29.88 in1011.9 mb 0.00 in0.0 mm 0.00 in0.0 mm 1.37 in34.8 mm
11:39 PM 66.3°F19.1°C 62.9°F17.2°C 89% Calm Calm -- 29.88 in1011.9 mb 0.00 in0.0 mm 0.00 in0.0 mm 1.37 in34.8 mm
11:44 PM 66.4°F19.1°C 63.0°F17.2°C 89% Calm Calm -- 29.88 in1011.9 mb 0.00 in0.0 mm 0.00 in0.0 mm 1.37 in34.8 mm
11:49 PM 66.5°F19.2°C 63.1°F17.3°C 89% Calm Calm -- 29.88 in1011.9 mb 0.00 in0.0 mm 0.00 in0.0 mm 1.37 in34.8 mm
11:54 PM 66.5°F19.2°C 63.1°F17.3°C 89% Calm Calm -- 29.89 in1012.2 mb 0.00 in0.0 mm 0.00 in0.0 mm 1.37 in34.8 mm
11:59 PM 66.5°F19.2°C 63.1°F17.3°C 89% Calm Calm -- 29.89 in1012.2 mb 0.00 in0.0 mm 0.00 in0.0 mm 1.37 in34.8 mm